Погода Старошешминскна 2 недели

Республика Татарстан, Россия

16 - 29 июля
  • 16июля
    Сегодня
    +15°
    +24°
    Небольшая облачность
    ВремяПогодаТемператураВлажностьДавлениеВетер, м/сВероятность осадков
    00:00Ясно и безоблачно+16°C72 %754 мм3.0 м/с2 %
    03:00Ясно и безоблачно+14°C81 %755 мм2.6 м/с2 %
    06:00Ясно и безоблачно+17°C75 %756 мм3.1 м/с2 %
    09:00Ясно и безоблачно+20°C59 %756 мм4.2 м/с2 %
    12:00Практически безоблачно+22°C48 %756 мм4.2 м/с2 %
    15:00Небольшая облачность+24°C46 %756 мм4.3 м/с2 %
    18:00Практически безоблачно+22°C51 %756 мм3.8 м/с2 %
    21:00Практически безоблачно+17°C70 %756 мм1.8 м/с2 %
  • 17июля
    Среда
    +15°
    +26°
    Облачно с прояснениями
    ВремяПогодаТемператураВлажностьДавлениеВетер, м/сВероятность осадков
    00:00Облачно с прояснениями+15°C83 %756 мм1.9 м/с2 %
    03:00Облачно с прояснениями+16°C79 %756 мм2.3 м/с2 %
    06:00Облачно с прояснениями+18°C73 %757 мм2.1 м/с2 %
    09:00Пасмурно, сплошная облачность+22°C60 %757 мм2.3 м/с2 %
    12:00Облачно с прояснениями+26°C45 %756 мм2.8 м/с2 %
    15:00Облачно с прояснениями+25°C45 %755 мм2.6 м/с2 %
    18:00Практически безоблачно+24°C58 %755 мм0.8 м/с2 %
    21:00Ясно и безоблачно+21°C61 %754 мм0.3 м/с2 %
  • 18июля
    Четверг
    +16°
    +25°
    Небольшая облачность
    ВремяПогодаТемператураВлажностьДавлениеВетер, м/сВероятность осадков
    00:00Практически безоблачно+17°C81 %754 мм1.7 м/с2 %
    03:00Практически безоблачно+17°C79 %754 мм1.8 м/с11 %
    06:00Практически безоблачно+19°C76 %753 мм0.4 м/с19 %
    09:00Небольшая облачность+22°C61 %753 мм1.7 м/с24 %
    12:00Облачно с прояснениями+23°C62 %752 мм0.9 м/с39 %
    15:00Небольшая облачность+24°C62 %751 мм1.9 м/с46 %
    18:00Ясно и безоблачно+24°C63 %751 мм2.0 м/с34 %
    21:00Ясно и безоблачно+18°C86 %752 мм1.7 м/с3 %
  • 19июля
    Пятница
    +17°
    +27°
    Ясно и безоблачно
    ВремяПогодаТемператураВлажностьДавлениеВетер, м/сВероятность осадков
    00:00Ясно и безоблачно+19°C86 %751 мм0.2 м/с2 %
    03:00Ясно и безоблачно+17°C92 %751 мм1.5 м/с2 %
    06:00Ясно и безоблачно+19°C88 %751 мм0.5 м/с2 %
    09:00Ясно и безоблачно+23°C64 %751 мм1.3 м/с7 %
    12:00Ясно и безоблачно+26°C52 %750 мм0.7 м/с24 %
    15:00Ясно и безоблачно+27°C47 %750 мм0.3 м/с14 %
    18:00Ясно и безоблачно+25°C50 %749 мм0.2 м/с4 %
    21:00Небольшая облачность+21°C75 %749 мм1.4 м/с2 %
  • 20июля
    Суббота
    +16°
    +28°
    Облачно с прояснениями
    ВремяПогодаТемператураВлажностьДавлениеВетер, м/сВероятность осадков
    00:00Небольшая облачность+19°C83 %749 мм1.9 м/с2 %
    03:00Облачно с прояснениями+18°C84 %748 мм1.9 м/с2 %
    06:00Облачно с прояснениями+20°C78 %749 мм1.4 м/с7 %
    09:00Облачно с прояснениями+25°C55 %748 мм1.0 м/с8 %
    12:00Облачно с прояснениями+27°C47 %748 мм1.1 м/с21 %
    15:00Облачно с прояснениями+27°C45 %748 мм2.4 м/с33 %
    18:00Пасмурно, сплошная облачность+23°C69 %748 мм1.4 м/с33 %
    21:00Облачно с прояснениями+20°C79 %748 мм1.2 м/с19 %
Мы используем cookies
Соглашаюсь